createdAt,value
2018-10-09T00:01:00.456Z,58.60
2018-10-09T00:03:30.632Z,57.27
2018-10-09T00:06:00.811Z,60.10
2018-10-09T00:08:30.914Z,58.53
2018-10-09T00:11:01.042Z,59.27
2018-10-09T00:13:31.296Z,57.83
2018-10-09T00:16:08.362Z,58.97
2018-10-09T00:18:38.468Z,60.93
2018-10-09T00:21:08.975Z,58.77
2018-10-09T00:23:39.484Z,59.93
2018-10-09T00:26:09.447Z,58.43
2018-10-09T00:28:40.382Z,57.73
2018-10-09T00:31:12.135Z,57.90
2018-10-09T00:33:42.746Z,59.67
2018-10-09T00:36:12.990Z,57.90
2018-10-09T00:38:43.064Z,57.83
2018-10-09T00:41:14.442Z,61.00
2018-10-09T00:43:45.683Z,56.80
2018-10-09T00:46:17.712Z,59.77
2018-10-09T00:48:48.121Z,58.77
2018-10-09T00:51:18.717Z,57.00
2018-10-09T00:53:49.078Z,56.87
2018-10-09T00:56:19.582Z,60.23
2018-10-09T00:58:50.596Z,58.47
2018-10-09T01:01:20.995Z,63.00
2018-10-09T01:03:51.229Z,59.53
2018-10-09T01:06:21.618Z,60.27
2018-10-09T01:08:52.140Z,60.07
2018-10-09T01:11:22.352Z,60.27
2018-10-09T01:13:52.532Z,57.93
2018-10-09T01:16:22.697Z,59.57
2018-10-09T01:18:52.892Z,58.50
2018-10-09T01:21:24.572Z,58.90
2018-10-09T01:23:56.034Z,57.53
2018-10-09T01:26:26.266Z,58.63
2018-10-09T01:28:56.412Z,60.70
2018-10-09T01:31:26.849Z,60.37
2018-10-09T01:34:03.949Z,59.17
2018-10-09T01:36:34.801Z,61.27
2018-10-09T01:39:06.296Z,59.33
2018-10-09T01:41:36.489Z,59.97
2018-10-09T01:44:06.895Z,60.70
2018-10-09T01:46:37.036Z,56.73
2018-10-09T01:49:07.340Z,56.67
2018-10-09T01:51:37.360Z,56.97
2018-10-09T01:54:08.073Z,56.80
2018-10-09T01:56:38.179Z,58.00
2018-10-09T01:59:08.606Z,57.27
2018-10-09T02:01:38.875Z,57.60
2018-10-09T02:04:09.142Z,56.27
2018-10-09T02:06:39.474Z,57.67
2018-10-09T02:09:10.755Z,58.33
2018-10-09T02:11:40.978Z,58.37
2018-10-09T02:14:11.302Z,55.80
2018-10-09T02:16:41.479Z,56.07
2018-10-09T02:19:11.576Z,55.17
2018-10-09T02:21:42.178Z,56.37
2018-10-09T02:24:12.492Z,58.33
2018-10-09T02:26:42.657Z,59.13
2018-10-09T02:29:13.198Z,57.03
2018-10-09T02:31:43.558Z,56.30
2018-10-09T02:34:14.180Z,57.70
2018-10-09T02:36:45.613Z,56.50
2018-10-09T02:39:15.982Z,57.13
2018-10-09T02:41:46.156Z,57.93
2018-10-09T02:44:18.570Z,56.37
2018-10-09T02:46:48.674Z,55.57
2018-10-09T02:49:19.125Z,58.67
2018-10-09T02:51:49.046Z,57.97
2018-10-09T02:54:19.755Z,56.80
2018-10-09T02:56:49.756Z,57.63
2018-10-09T02:59:20.021Z,57.90
2018-10-09T03:01:50.411Z,59.18
2018-10-09T03:04:21.219Z,55.77
2018-10-09T03:06:51.347Z,57.17
2018-10-09T03:09:21.925Z,57.13
2018-10-09T03:11:53.089Z,58.07
2018-10-09T03:14:25.606Z,56.57
2018-10-09T03:16:55.812Z,55.63
2018-10-09T03:19:25.909Z,58.17
2018-10-09T03:21:56.068Z,55.90
2018-10-09T03:24:26.888Z,55.13
2018-10-09T03:26:57.161Z,54.83
2018-10-09T03:29:27.312Z,56.17
2018-10-09T03:31:57.964Z,59.27
2018-10-09T03:34:28.139Z,57.43
2018-10-09T03:36:58.315Z,55.93
2018-10-09T03:39:28.510Z,57.23
2018-10-09T03:41:58.806Z,55.83
2018-10-09T03:44:28.998Z,58.40
2018-10-09T03:46:59.292Z,58.27
2018-10-09T03:49:30.008Z,56.63
2018-10-09T03:52:00.261Z,55.63
2018-10-09T03:54:30.854Z,57.13
2018-10-09T03:57:00.961Z,59.10
2018-10-09T03:59:31.152Z,56.07
2018-10-09T04:02:01.387Z,59.47
2018-10-09T04:04:31.734Z,56.93
2018-10-09T04:07:02.171Z,56.80
2018-10-09T04:09:32.384Z,56.50
2018-10-09T04:12:02.705Z,56.20
2018-10-09T04:14:32.805Z,57.67
2018-10-09T04:17:02.912Z,58.53
2018-10-09T04:19:33.219Z,57.57
2018-10-09T04:22:03.284Z,57.10
2018-10-09T04:24:33.530Z,61.80
2018-10-09T04:27:03.752Z,56.00
2018-10-09T04:29:34.366Z,57.33
2018-10-09T04:32:04.810Z,57.03
2018-10-09T04:34:35.264Z,57.70
2018-10-09T04:37:05.654Z,54.67
2018-10-09T04:39:36.100Z,56.13
2018-10-09T04:42:06.315Z,57.50
2018-10-09T04:44:36.746Z,55.43
2018-10-09T04:47:07.150Z,54.87
2018-10-09T04:49:37.512Z,58.00
2018-10-09T04:52:08.335Z,58.70
2018-10-09T04:54:40.038Z,56.20
2018-10-09T04:57:10.294Z,56.90
2018-10-09T04:59:40.651Z,55.33
2018-10-09T05:02:10.830Z,56.63
2018-10-09T05:04:41.101Z,55.73
2018-10-09T05:07:11.231Z,57.00
2018-10-09T05:09:41.438Z,55.70
2018-10-09T05:12:11.782Z,57.40
2018-10-09T05:14:44.126Z,54.90
2018-10-09T05:17:14.832Z,57.37
2018-10-09T05:19:48.318Z,55.03
2018-10-09T05:22:20.361Z,56.07
2018-10-09T05:24:50.438Z,56.13
2018-10-09T05:27:20.511Z,54.37
2018-10-09T05:29:50.816Z,55.20
2018-10-09T05:32:21.772Z,57.80
2018-10-09T05:34:52.054Z,57.90
2018-10-09T05:37:22.333Z,56.03
2018-10-09T05:39:52.433Z,54.97
2018-10-09T05:42:23.647Z,55.97
2018-10-09T05:44:54.469Z,55.70
2018-10-09T05:47:25.389Z,55.60
2018-10-09T05:49:55.629Z,54.13
2018-10-09T05:52:25.882Z,53.83
2018-10-09T05:54:56.295Z,55.27
2018-10-09T05:57:26.389Z,56.30
2018-10-09T05:59:56.348Z,57.27
2018-10-09T06:02:26.642Z,57.70
2018-10-09T06:04:57.097Z,56.23
2018-10-09T06:07:27.376Z,53.33
2018-10-09T06:09:59.150Z,54.67
2018-10-09T06:12:29.554Z,53.90
2018-10-09T06:14:59.923Z,54.90
2018-10-09T06:17:30.028Z,54.07
2018-10-09T06:20:00.376Z,56.30
2018-10-09T06:22:30.758Z,55.13
2018-10-09T06:25:00.778Z,53.40
2018-10-09T06:27:31.370Z,54.67
2018-10-09T06:30:01.446Z,54.43
2018-10-09T06:32:31.682Z,56.07
2018-10-09T06:35:02.502Z,53.83
2018-10-09T06:37:33.068Z,54.97
2018-10-09T06:40:03.969Z,53.23
2018-10-09T06:42:34.149Z,57.63
2018-10-09T06:45:04.194Z,52.93
2018-10-09T06:47:34.253Z,57.23
2018-10-09T06:50:04.480Z,53.80
2018-10-09T06:52:35.159Z,54.67
2018-10-09T06:55:05.348Z,54.00
2018-10-09T06:57:36.287Z,54.10
2018-10-09T07:00:06.542Z,55.17
2018-10-09T07:02:37.053Z,55.43
2018-10-09T07:05:07.684Z,54.27
2018-10-09T07:07:37.905Z,54.97
2018-10-09T07:10:08.571Z,54.07
2018-10-09T07:12:39.335Z,52.80
2018-10-09T07:15:09.924Z,53.80
2018-10-09T07:17:39.973Z,55.67
2018-10-09T07:20:10.032Z,54.63
2018-10-09T07:22:40.423Z,53.77
2018-10-09T07:25:10.585Z,53.37
2018-10-09T07:27:40.533Z,55.83
2018-10-09T07:30:11.221Z,55.50
2018-10-09T07:32:41.583Z,54.30
2018-10-09T07:35:12.298Z,56.03
2018-10-09T07:37:42.509Z,58.80
2018-10-09T07:40:12.993Z,58.40
2018-10-09T07:42:43.705Z,57.43
2018-10-09T07:45:14.472Z,61.50
2018-10-09T07:47:44.607Z,59.80
2018-10-09T07:50:15.499Z,67.07
2018-10-09T07:52:46.224Z,62.67
2018-10-09T07:55:16.356Z,61.87
2018-10-09T07:57:46.291Z,60.13
2018-10-09T08:00:16.807Z,62.57
2018-10-09T08:02:46.756Z,58.90
2018-10-09T08:05:17.213Z,58.83
2018-10-09T08:07:47.987Z,57.03
2018-10-09T08:10:18.174Z,58.63
2018-10-09T08:12:48.337Z,60.43
2018-10-09T08:15:18.755Z,60.77
2018-10-09T08:17:49.305Z,59.43
2018-10-09T08:20:19.365Z,58.03
2018-10-09T08:22:49.896Z,58.83
2018-10-09T08:25:19.943Z,58.57
2018-10-09T08:27:49.863Z,58.10
2018-10-09T08:30:22.758Z,59.70
2018-10-09T08:32:52.794Z,61.73
2018-10-09T08:35:23.338Z,59.67
2018-10-09T08:37:56.121Z,59.83
2018-10-09T08:40:26.479Z,59.67
2018-10-09T08:42:56.442Z,62.10
2018-10-09T08:45:26.490Z,59.53
2018-10-09T08:47:57.638Z,62.47
2018-10-09T08:50:27.831Z,60.43
2018-10-09T08:52:58.384Z,62.73
2018-10-09T08:55:28.667Z,58.57
2018-10-09T08:57:58.792Z,59.00
2018-10-09T09:00:29.996Z,59.83
2018-10-09T09:03:00.996Z,62.87
2018-10-09T09:05:36.028Z,61.07
2018-10-09T09:08:06.206Z,60.53
2018-10-09T09:10:36.381Z,60.27
2018-10-09T09:13:06.728Z,58.93
2018-10-09T09:15:36.809Z,62.93
2018-10-09T09:18:07.059Z,59.37
2018-10-09T09:20:37.281Z,60.73
2018-10-09T09:23:07.808Z,60.40
2018-10-09T09:25:38.167Z,59.17
2018-10-09T09:28:08.267Z,64.83
2018-10-09T09:30:38.679Z,60.43
2018-10-09T09:33:09.232Z,63.23
2018-10-09T09:35:39.394Z,63.47
2018-10-09T09:38:09.627Z,59.40
2018-10-09T09:40:39.854Z,61.47
2018-10-09T09:43:10.503Z,61.17
2018-10-09T09:45:41.808Z,59.40
2018-10-09T09:48:12.330Z,61.77
2018-10-09T09:50:42.694Z,61.77
2018-10-09T09:53:12.928Z,63.17
2018-10-09T09:55:46.126Z,60.37
2018-10-09T09:58:17.964Z,58.93
2018-10-09T10:01:07.435Z,58.87
2018-10-09T10:03:39.247Z,58.00
2018-10-09T10:06:09.506Z,60.50
2018-10-09T10:08:40.038Z,62.20
2018-10-09T10:11:17.200Z,65.37
2018-10-09T10:13:47.827Z,61.00
2018-10-09T10:16:18.383Z,59.47
2018-10-09T10:18:48.898Z,58.77
2018-10-09T10:21:19.380Z,63.47
2018-10-09T10:23:49.740Z,62.53
2018-10-09T10:26:20.499Z,58.87
2018-10-09T10:28:50.910Z,61.23
2018-10-09T10:31:20.864Z,62.00
2018-10-09T10:33:51.071Z,62.13
2018-10-09T10:36:21.418Z,60.63
2018-10-09T10:38:51.703Z,60.63
2018-10-09T10:41:28.549Z,62.70
2018-10-09T10:43:58.812Z,61.77
2018-10-09T10:46:41.550Z,61.37
2018-10-09T10:49:13.163Z,65.73
2018-10-09T10:51:43.245Z,63.60
2018-10-09T10:54:13.949Z,66.43
2018-10-09T10:56:43.964Z,61.73
2018-10-09T10:59:14.251Z,71.37
2018-10-09T11:01:44.252Z,82.90
2018-10-09T11:04:15.245Z,64.50
2018-10-09T11:06:45.564Z,62.83
2018-10-09T11:09:16.914Z,67.50
2018-10-09T11:11:47.032Z,61.57
2018-10-09T11:14:17.165Z,64.10
2018-10-09T11:16:47.583Z,63.30
2018-10-09T11:19:17.830Z,61.03
2018-10-09T11:21:48.051Z,62.60
2018-10-09T11:24:18.477Z,63.10
2018-10-09T11:26:48.459Z,62.17
2018-10-09T11:29:18.368Z,65.00
2018-10-09T11:31:48.754Z,61.93
2018-10-09T11:34:19.238Z,63.37
2018-10-09T11:36:50.404Z,61.27
2018-10-09T11:39:20.798Z,63.00
2018-10-09T11:41:51.797Z,63.00
2018-10-09T11:44:21.852Z,64.13
2018-10-09T11:46:51.774Z,62.07
2018-10-09T11:49:22.015Z,62.93
2018-10-09T11:51:52.548Z,63.67
2018-10-09T11:54:22.786Z,62.53
2018-10-09T11:56:53.301Z,59.83
2018-10-09T11:59:23.287Z,65.30
2018-10-09T12:01:53.527Z,64.33
2018-10-09T12:04:23.617Z,63.50
2018-10-09T12:06:53.562Z,62.77
2018-10-09T12:09:23.779Z,61.83
2018-10-09T12:11:53.887Z,64.90
2018-10-09T12:14:24.327Z,65.30
2018-10-09T12:16:54.483Z,62.80
2018-10-09T12:19:25.004Z,61.40
2018-10-09T12:21:56.123Z,64.20
2018-10-09T12:24:26.244Z,60.93
2018-10-09T12:26:57.518Z,62.93
2018-10-09T12:29:28.497Z,62.90
2018-10-09T12:31:58.611Z,61.47
2018-10-09T12:34:29.853Z,66.13
2018-10-09T12:36:59.919Z,63.13
2018-10-09T12:39:29.915Z,63.43
2018-10-09T12:42:00.048Z,65.37
2018-10-09T12:44:30.169Z,65.03
2018-10-09T12:47:00.783Z,63.03
2018-10-09T12:49:30.953Z,64.03
2018-10-09T12:52:01.387Z,66.47
2018-10-09T12:54:32.713Z,63.17
2018-10-09T12:57:03.282Z,65.13
2018-10-09T12:59:34.581Z,62.30
2018-10-09T13:02:05.039Z,64.13
2018-10-09T13:04:35.274Z,64.27
2018-10-09T13:07:05.525Z,63.20
2018-10-09T13:09:35.944Z,65.20
2018-10-09T13:12:06.797Z,63.90
2018-10-09T13:14:43.706Z,62.77
2018-10-09T13:17:14.921Z,63.83
2018-10-09T13:19:45.139Z,65.57
2018-10-09T13:22:15.648Z,64.83
2018-10-09T13:24:45.765Z,64.70
2018-10-09T13:27:15.886Z,65.77
2018-10-09T13:29:45.964Z,65.43
2018-10-09T13:32:15.978Z,65.00
2018-10-09T13:34:46.967Z,65.20
2018-10-09T13:37:17.168Z,66.30
2018-10-09T13:39:50.178Z,63.73
2018-10-09T13:42:23.058Z,65.20
2018-10-09T13:44:53.142Z,64.67
2018-10-09T13:47:23.524Z,67.03
2018-10-09T13:49:53.665Z,66.87
2018-10-09T13:52:23.822Z,66.27
2018-10-09T13:54:54.170Z,66.00
2018-10-09T13:57:24.340Z,64.67
2018-10-09T13:59:57.035Z,65.57
2018-10-09T14:02:27.174Z,67.53
2018-10-09T14:04:57.353Z,66.20
2018-10-09T14:07:27.456Z,64.97
2018-10-09T14:09:58.809Z,65.73
2018-10-09T14:12:29.079Z,67.03
2018-10-09T14:14:59.281Z,66.20
2018-10-09T14:17:29.407Z,67.23
2018-10-09T14:19:59.915Z,66.00
2018-10-09T14:22:30.034Z,67.07
2018-10-09T14:25:00.329Z,66.73
2018-10-09T14:27:30.454Z,66.23
2018-10-09T14:30:00.524Z,66.20
2018-10-09T14:32:30.731Z,68.17
2018-10-09T14:35:00.999Z,65.23
2018-10-09T14:37:31.392Z,65.30
2018-10-09T14:40:01.489Z,63.57
2018-10-09T14:42:38.550Z,67.03
2018-10-09T14:45:08.898Z,66.60
2018-10-09T14:47:39.417Z,66.50
2018-10-09T14:50:09.562Z,68.23
2018-10-09T14:52:39.604Z,67.60
2018-10-09T14:55:09.670Z,71.80
2018-10-09T14:57:41.118Z,72.67
2018-10-09T15:00:12.073Z,70.30
2018-10-09T15:02:42.891Z,72.13
2018-10-09T15:05:12.974Z,69.60
2018-10-09T15:07:43.273Z,75.53
2018-10-09T15:10:13.273Z,74.77
2018-10-09T15:12:44.109Z,75.40
2018-10-09T15:15:14.590Z,77.10
2018-10-09T15:17:44.896Z,78.40
2018-10-09T15:20:15.131Z,75.87
2018-10-09T15:22:45.443Z,78.20
2018-10-09T15:25:15.680Z,78.93
2018-10-09T15:27:50.204Z,76.03
2018-10-09T15:30:21.836Z,78.83
2018-10-09T15:32:52.181Z,75.90
2018-10-09T15:35:22.736Z,79.23
2018-10-09T15:37:53.275Z,77.43
2018-10-09T15:40:23.318Z,78.27
2018-10-09T15:42:53.748Z,78.87
2018-10-09T15:45:23.737Z,80.90
2018-10-09T15:47:53.702Z,78.03
2018-10-09T15:50:23.884Z,80.43
2018-10-09T15:52:53.847Z,78.07
2018-10-09T15:55:23.883Z,77.07
2018-10-09T15:57:53.978Z,79.07
2018-10-09T16:00:24.269Z,81.10
2018-10-09T16:02:54.554Z,77.30
2018-10-09T16:05:25.332Z,78.47
2018-10-09T16:07:55.738Z,77.97
2018-10-09T16:10:27.903Z,79.80
2018-10-09T16:13:00.504Z,74.90
2018-10-09T16:15:31.162Z,76.97
2018-10-09T16:18:01.465Z,77.47
2018-10-09T16:20:31.626Z,79.70
2018-10-09T16:23:08.624Z,79.20
2018-10-09T16:25:38.974Z,76.47
2018-10-09T16:28:09.262Z,73.70
2018-10-09T16:30:39.409Z,72.43
2018-10-09T16:33:09.681Z,76.87
2018-10-09T16:35:40.285Z,76.20
2018-10-09T16:38:10.569Z,75.47
2018-10-09T16:40:40.634Z,77.37
2018-10-09T16:43:10.963Z,80.80
2018-10-09T16:45:41.481Z,77.03
2018-10-09T16:48:11.829Z,78.57
2018-10-09T16:50:42.076Z,77.23
2018-10-09T16:53:12.259Z,76.17
2018-10-09T16:55:42.358Z,77.13
2018-10-09T16:58:12.618Z,74.40
2018-10-09T17:00:45.076Z,77.40
2018-10-09T17:03:15.819Z,73.47
2018-10-09T17:05:46.420Z,75.10
2018-10-09T17:08:16.484Z,73.13
2018-10-09T17:10:47.332Z,73.37
2018-10-09T17:13:17.589Z,74.43
2018-10-09T17:15:48.014Z,75.10
2018-10-09T17:18:18.321Z,73.20
2018-10-09T17:20:48.566Z,70.80
2018-10-09T17:23:19.112Z,70.30
2018-10-09T17:25:49.294Z,69.67
2018-10-09T17:28:19.666Z,68.00
2018-10-09T17:30:49.772Z,73.93
2018-10-09T17:33:20.116Z,70.53
2018-10-09T17:35:49.979Z,80.87
2018-10-09T17:38:21.926Z,70.60
2018-10-09T17:40:54.462Z,67.93
2018-10-09T17:43:24.845Z,71.30
2018-10-09T17:45:55.292Z,69.47
2018-10-09T17:48:25.600Z,72.40
2018-10-09T17:50:56.252Z,70.50
2018-10-09T17:53:29.277Z,69.37
2018-10-09T17:56:02.598Z,68.70
2018-10-09T17:58:32.557Z,65.53
2018-10-09T18:01:03.162Z,67.00
2018-10-09T18:03:34.361Z,67.87
2018-10-09T18:06:04.911Z,66.83
2018-10-09T18:08:35.108Z,69.80
2018-10-09T18:11:05.642Z,65.37
2018-10-09T18:13:35.808Z,66.67
2018-10-09T18:16:06.024Z,66.27
2018-10-09T18:18:36.475Z,68.03
2018-10-09T18:21:06.604Z,65.60
2018-10-09T18:23:36.811Z,68.37
2018-10-09T18:26:07.185Z,68.73
2018-10-09T18:28:39.165Z,65.93
2018-10-09T18:31:09.577Z,66.77
2018-10-09T18:33:39.863Z,66.10
2018-10-09T18:36:10.063Z,66.30
2018-10-09T18:38:40.922Z,61.43
2018-10-09T18:41:11.760Z,63.07
2018-10-09T18:43:42.216Z,62.37
2018-10-09T18:46:12.799Z,63.50
2018-10-09T18:48:42.966Z,62.83
2018-10-09T18:51:13.413Z,65.13
2018-10-09T18:53:44.525Z,61.40
2018-10-09T18:56:14.853Z,62.03
2018-10-09T18:58:45.082Z,64.70
2018-10-09T19:01:15.360Z,92.67
2018-10-09T19:03:45.569Z,65.03
2018-10-09T19:06:16.471Z,63.67
2018-10-09T19:08:46.943Z,63.10
2018-10-09T19:11:17.322Z,61.90
2018-10-09T19:13:47.618Z,65.17
2018-10-09T19:16:17.914Z,61.17
2018-10-09T19:18:47.985Z,68.50
2018-10-09T19:21:17.999Z,62.37
2018-10-09T19:23:48.007Z,64.23
2018-10-09T19:26:18.553Z,61.73
2018-10-09T19:28:48.569Z,63.17
2018-10-09T19:31:18.801Z,62.53
2018-10-09T19:33:48.814Z,64.40
2018-10-09T19:36:19.042Z,60.77
2018-10-09T19:38:49.595Z,64.17
2018-10-09T19:41:19.707Z,64.33
2018-10-09T19:43:50.106Z,65.00
2018-10-09T19:46:21.020Z,61.80
2018-10-09T19:48:51.608Z,64.30
2018-10-09T19:51:22.857Z,68.10
2018-10-09T19:53:52.781Z,61.37
2018-10-09T19:56:22.886Z,63.67
2018-10-09T19:58:53.251Z,61.77
2018-10-09T20:01:24.045Z,66.07
2018-10-09T20:03:54.246Z,63.43
2018-10-09T20:06:24.789Z,64.80
2018-10-09T20:08:55.021Z,66.50
2018-10-09T20:11:25.195Z,65.17
2018-10-09T20:13:55.592Z,64.27
2018-10-09T20:16:25.962Z,64.77
2018-10-09T20:18:56.105Z,61.47
2018-10-09T20:21:26.286Z,63.97
2018-10-09T20:23:56.395Z,61.40
2018-10-09T20:26:26.497Z,63.40
2018-10-09T20:28:56.674Z,63.17
2018-10-09T20:31:26.807Z,62.63
2018-10-09T20:33:57.158Z,63.83
2018-10-09T20:36:27.484Z,61.70
2018-10-09T20:38:57.559Z,62.13
2018-10-09T20:41:28.121Z,62.67
2018-10-09T20:43:58.357Z,60.40
2018-10-09T20:46:28.659Z,61.30
2018-10-09T20:48:59.621Z,62.30
2018-10-09T20:51:29.587Z,60.77
2018-10-09T20:53:59.933Z,62.43
2018-10-09T20:56:30.360Z,62.97
2018-10-09T20:59:00.847Z,62.30
2018-10-09T21:01:30.854Z,61.77
2018-10-09T21:04:02.617Z,60.77
2018-10-09T21:06:32.925Z,61.63
2018-10-09T21:09:03.321Z,59.93
2018-10-09T21:11:33.598Z,61.83
2018-10-09T21:14:03.831Z,61.03
2018-10-09T21:16:34.555Z,61.77
2018-10-09T21:19:05.716Z,58.40
2018-10-09T21:21:36.167Z,60.80
2018-10-09T21:24:06.941Z,59.60
2018-10-09T21:26:37.625Z,61.60
2018-10-09T21:29:08.018Z,59.73
2018-10-09T21:31:38.064Z,58.40
2018-10-09T21:34:08.975Z,58.97
2018-10-09T21:36:39.264Z,58.60
2018-10-09T21:39:10.336Z,58.63
2018-10-09T21:41:40.577Z,59.27
2018-10-09T21:44:11.141Z,58.30
2018-10-09T21:46:41.487Z,59.10
2018-10-09T21:49:11.598Z,58.07
2018-10-09T21:51:42.584Z,60.40
2018-10-09T21:54:12.782Z,59.50
2018-10-09T21:56:42.697Z,58.67
2018-10-09T21:59:12.658Z,60.80
2018-10-09T22:01:45.729Z,61.93
2018-10-09T22:04:15.973Z,60.50
2018-10-09T22:06:46.321Z,58.67
2018-10-09T22:09:16.307Z,61.00
2018-10-09T22:11:46.327Z,59.30
2018-10-09T22:14:16.666Z,60.23
2018-10-09T22:16:46.669Z,59.47
2018-10-09T22:19:17.212Z,58.83
2018-10-09T22:21:48.363Z,60.07
2018-10-09T22:24:18.608Z,58.50
2018-10-09T22:26:48.630Z,58.43
2018-10-09T22:29:18.827Z,58.13
2018-10-09T22:31:49.062Z,58.20
2018-10-09T22:34:20.058Z,60.23
2018-10-09T22:36:50.240Z,58.33
2018-10-09T22:39:20.565Z,56.10
2018-10-09T22:41:50.808Z,57.77
2018-10-09T22:44:21.255Z,58.37
2018-10-09T22:46:51.175Z,60.53
2018-10-09T22:49:21.286Z,58.83
2018-10-09T22:51:54.271Z,59.70
2018-10-09T22:54:24.254Z,57.63
2018-10-09T22:56:54.463Z,57.03
2018-10-09T22:59:25.346Z,57.90
2018-10-09T23:01:55.589Z,83.43
2018-10-09T23:04:25.875Z,58.13
2018-10-09T23:06:56.137Z,56.40
2018-10-09T23:09:26.502Z,59.40
2018-10-09T23:11:59.669Z,57.60
2018-10-09T23:14:29.865Z,59.40
2018-10-09T23:17:00.940Z,55.63
2018-10-09T23:19:31.837Z,57.43
2018-10-09T23:22:02.839Z,58.57
2018-10-09T23:24:33.022Z,60.23
2018-10-09T23:27:03.471Z,65.23
2018-10-09T23:29:33.589Z,63.43
2018-10-09T23:32:03.592Z,57.80
2018-10-09T23:34:33.735Z,61.03
2018-10-09T23:37:04.074Z,60.67
2018-10-09T23:39:34.142Z,58.80
2018-10-09T23:42:04.297Z,60.33
2018-10-09T23:44:34.568Z,59.43
2018-10-09T23:47:04.542Z,58.83
2018-10-09T23:49:35.113Z,61.67
2018-10-09T23:52:05.473Z,58.77
2018-10-09T23:54:35.557Z,59.10
2018-10-09T23:57:06.398Z,58.63
2018-10-09T23:59:36.870Z,59.20
